sensor_id;sensor_type;location;lat;lon;timestamp;temperature;humidity
52321;DHT22;38261;54.090;13.382;2023-09-12T00:00:01;18.90;99.90
52321;DHT22;38261;54.090;13.382;2023-09-12T00:01:27;18.90;99.90
52321;DHT22;38261;54.090;13.382;2023-09-12T00:02:49;18.90;99.90
52321;DHT22;38261;54.090;13.382;2023-09-12T00:04:11;18.90;99.90
52321;DHT22;38261;54.090;13.382;2023-09-12T00:05:34;18.90;99.90
52321;DHT22;38261;54.090;13.382;2023-09-12T00:06:56;18.90;99.90
52321;DHT22;38261;54.090;13.382;2023-09-12T00:08:18;18.80;99.90
52321;DHT22;38261;54.090;13.382;2023-09-12T00:09:41;18.80;99.90
52321;DHT22;38261;54.090;13.382;2023-09-12T00:11:08;18.80;99.90
52321;DHT22;38261;54.090;13.382;2023-09-12T00:12:32;18.80;99.90
52321;DHT22;38261;54.090;13.382;2023-09-12T00:13:55;18.80;99.90
52321;DHT22;38261;54.090;13.382;2023-09-12T00:15:17;18.80;99.90
52321;DHT22;38261;54.090;13.382;2023-09-12T00:16:41;18.80;99.90
52321;DHT22;38261;54.090;13.382;2023-09-12T00:18:03;18.80;99.90
52321;DHT22;38261;54.090;13.382;2023-09-12T00:19:26;18.80;99.90
52321;DHT22;38261;54.090;13.382;2023-09-12T00:20:49;18.80;99.90
52321;DHT22;38261;54.090;13.382;2023-09-12T00:22:11;18.80;99.90
52321;DHT22;38261;54.090;13.382;2023-09-12T00:23:34;18.80;99.90
52321;DHT22;38261;54.090;13.382;2023-09-12T00:24:56;18.80;99.90
52321;DHT22;38261;54.090;13.382;2023-09-12T00:26:18;18.80;99.90
52321;DHT22;38261;54.090;13.382;2023-09-12T00:27:40;18.80;99.90
52321;DHT22;38261;54.090;13.382;2023-09-12T00:29:02;18.80;99.90
52321;DHT22;38261;54.090;13.382;2023-09-12T00:30:24;18.80;99.90
52321;DHT22;38261;54.090;13.382;2023-09-12T00:31:46;18.80;99.90
52321;DHT22;38261;54.090;13.382;2023-09-12T00:33:09;18.80;99.90
52321;DHT22;38261;54.090;13.382;2023-09-12T00:34:31;18.80;99.90
52321;DHT22;38261;54.090;13.382;2023-09-12T00:35:53;18.80;99.90
52321;DHT22;38261;54.090;13.382;2023-09-12T00:37:15;18.80;99.90
52321;DHT22;38261;54.090;13.382;2023-09-12T00:38:37;18.80;99.90
52321;DHT22;38261;54.090;13.382;2023-09-12T00:39:59;18.80;99.90
52321;DHT22;38261;54.090;13.382;2023-09-12T00:41:22;18.70;99.90
52321;DHT22;38261;54.090;13.382;2023-09-12T00:42:44;18.70;99.90
52321;DHT22;38261;54.090;13.382;2023-09-12T00:44:06;18.70;99.90
52321;DHT22;38261;54.090;13.382;2023-09-12T00:45:28;18.70;99.90
52321;DHT22;38261;54.090;13.382;2023-09-12T00:46:51;18.70;99.90
52321;DHT22;38261;54.090;13.382;2023-09-12T00:48:16;18.70;99.90
52321;DHT22;38261;54.090;13.382;2023-09-12T00:49:39;18.70;99.90
52321;DHT22;38261;54.090;13.382;2023-09-12T00:51:02;18.70;99.90
52321;DHT22;38261;54.090;13.382;2023-09-12T00:52:26;18.70;99.90
52321;DHT22;38261;54.090;13.382;2023-09-12T00:53:49;18.70;99.90
52321;DHT22;38261;54.090;13.382;2023-09-12T00:55:11;18.70;99.90
52321;DHT22;38261;54.090;13.382;2023-09-12T00:56:34;18.70;99.90
52321;DHT22;38261;54.090;13.382;2023-09-12T00:57:56;18.70;99.90
52321;DHT22;38261;54.090;13.382;2023-09-12T00:59:18;18.60;99.90
52321;DHT22;38261;54.090;13.382;2023-09-12T01:00:41;18.60;99.90
52321;DHT22;38261;54.090;13.382;2023-09-12T01:02:04;18.60;99.90
52321;DHT22;38261;54.090;13.382;2023-09-12T01:03:26;18.60;99.90
52321;DHT22;38261;54.090;13.382;2023-09-12T01:04:50;18.60;99.90
52321;DHT22;38261;54.090;13.382;2023-09-12T01:06:14;18.60;99.90
52321;DHT22;38261;54.090;13.382;2023-09-12T01:07:38;18.60;99.90
52321;DHT22;38261;54.090;13.382;2023-09-12T01:09:00;18.60;99.90
52321;DHT22;38261;54.090;13.382;2023-09-12T01:10:22;18.60;99.90
52321;DHT22;38261;54.090;13.382;2023-09-12T01:11:45;18.60;99.90
52321;DHT22;38261;54.090;13.382;2023-09-12T01:13:07;18.60;99.90
52321;DHT22;38261;54.090;13.382;2023-09-12T01:14:30;18.60;99.90
52321;DHT22;38261;54.090;13.382;2023-09-12T01:15:52;18.60;99.90
52321;DHT22;38261;54.090;13.382;2023-09-12T01:17:14;18.60;99.90
52321;DHT22;38261;54.090;13.382;2023-09-12T01:18:37;18.60;99.90
52321;DHT22;38261;54.090;13.382;2023-09-12T01:20:01;18.60;99.90
52321;DHT22;38261;54.090;13.382;2023-09-12T01:21:41;18.50;99.90
52321;DHT22;38261;54.090;13.382;2023-09-12T01:23:34;18.50;99.90
52321;DHT22;38261;54.090;13.382;2023-09-12T01:28:05;18.50;99.90
52321;DHT22;38261;54.090;13.382;2023-09-12T01:29:28;18.60;99.90
52321;DHT22;38261;54.090;13.382;2023-09-12T01:30:53;18.50;99.90
52321;DHT22;38261;54.090;13.382;2023-09-12T01:32:18;18.50;99.90
52321;DHT22;38261;54.090;13.382;2023-09-12T01:33:41;18.50;99.90
52321;DHT22;38261;54.090;13.382;2023-09-12T01:35:04;18.50;99.90
52321;DHT22;38261;54.090;13.382;2023-09-12T01:36:26;18.50;99.90
52321;DHT22;38261;54.090;13.382;2023-09-12T01:37:48;18.50;99.90
52321;DHT22;38261;54.090;13.382;2023-09-12T01:39:10;18.50;99.90
52321;DHT22;38261;54.090;13.382;2023-09-12T01:40:50;18.50;99.90
52321;DHT22;38261;54.090;13.382;2023-09-12T01:42:15;18.50;99.90
52321;DHT22;38261;54.090;13.382;2023-09-12T01:43:38;18.50;99.90
52321;DHT22;38261;54.090;13.382;2023-09-12T01:45:03;18.50;99.90
52321;DHT22;38261;54.090;13.382;2023-09-12T01:46:26;18.50;99.90
52321;DHT22;38261;54.090;13.382;2023-09-12T01:47:49;18.50;99.90
52321;DHT22;38261;54.090;13.382;2023-09-12T01:49:13;18.40;99.90
52321;DHT22;38261;54.090;13.382;2023-09-12T01:50:36;18.50;99.90
52321;DHT22;38261;54.090;13.382;2023-09-12T01:51:59;18.40;99.90
52321;DHT22;38261;54.090;13.382;2023-09-12T01:53:21;18.50;99.90
52321;DHT22;38261;54.090;13.382;2023-09-12T01:54:44;18.40;99.90
52321;DHT22;38261;54.090;13.382;2023-09-12T01:56:07;18.40;99.90
52321;DHT22;38261;54.090;13.382;2023-09-12T01:57:30;18.40;99.90
52321;DHT22;38261;54.090;13.382;2023-09-12T01:58:53;18.40;99.90
52321;DHT22;38261;54.090;13.382;2023-09-12T02:00:17;18.40;99.90
52321;DHT22;38261;54.090;13.382;2023-09-12T02:01:40;18.40;99.90
52321;DHT22;38261;54.090;13.382;2023-09-12T02:03:04;18.40;99.90
52321;DHT22;38261;54.090;13.382;2023-09-12T02:04:26;18.40;99.90
52321;DHT22;38261;54.090;13.382;2023-09-12T02:05:48;18.40;99.90
52321;DHT22;38261;54.090;13.382;2023-09-12T02:07:10;18.40;99.90
52321;DHT22;38261;54.090;13.382;2023-09-12T02:08:33;18.40;99.90
52321;DHT22;38261;54.090;13.382;2023-09-12T02:09:55;18.40;99.90
52321;DHT22;38261;54.090;13.382;2023-09-12T02:11:17;18.40;99.90
52321;DHT22;38261;54.090;13.382;2023-09-12T02:12:39;18.40;99.90
52321;DHT22;38261;54.090;13.382;2023-09-12T02:14:02;18.40;99.90
52321;DHT22;38261;54.090;13.382;2023-09-12T02:15:24;18.40;99.90
52321;DHT22;38261;54.090;13.382;2023-09-12T02:16:46;18.40;99.90
52321;DHT22;38261;54.090;13.382;2023-09-12T02:18:08;18.40;99.90
52321;DHT22;38261;54.090;13.382;2023-09-12T02:19:31;18.40;99.90
52321;DHT22;38261;54.090;13.382;2023-09-12T02:20:53;18.40;99.90
52321;DHT22;38261;54.090;13.382;2023-09-12T02:22:15;18.40;99.90
52321;DHT22;38261;54.090;13.382;2023-09-12T02:23:37;18.40;99.90
52321;DHT22;38261;54.090;13.382;2023-09-12T02:24:59;18.40;99.90
52321;DHT22;38261;54.090;13.382;2023-09-12T02:26:21;18.40;99.90
52321;DHT22;38261;54.090;13.382;2023-09-12T02:27:43;18.40;99.90
52321;DHT22;38261;54.090;13.382;2023-09-12T02:29:06;18.30;99.90
52321;DHT22;38261;54.090;13.382;2023-09-12T02:30:29;18.30;99.90
52321;DHT22;38261;54.090;13.382;2023-09-12T02:31:51;18.30;99.90
52321;DHT22;38261;54.090;13.382;2023-09-12T02:33:13;18.30;99.90
52321;DHT22;38261;54.090;13.382;2023-09-12T02:34:35;18.30;99.90
52321;DHT22;38261;54.090;13.382;2023-09-12T02:35:57;18.30;99.90
52321;DHT22;38261;54.090;13.382;2023-09-12T02:37:20;18.30;99.90
52321;DHT22;38261;54.090;13.382;2023-09-12T02:38:42;18.30;99.90
52321;DHT22;38261;54.090;13.382;2023-09-12T02:40:04;18.30;99.90
52321;DHT22;38261;54.090;13.382;2023-09-12T02:41:32;18.30;99.90
52321;DHT22;38261;54.090;13.382;2023-09-12T02:42:55;18.30;99.90
52321;DHT22;38261;54.090;13.382;2023-09-12T02:44:17;18.30;99.90
52321;DHT22;38261;54.090;13.382;2023-09-12T02:45:39;18.30;99.90
52321;DHT22;38261;54.090;13.382;2023-09-12T02:47:02;18.30;99.90
52321;DHT22;38261;54.090;13.382;2023-09-12T02:48:26;18.30;99.90
52321;DHT22;38261;54.090;13.382;2023-09-12T02:49:48;18.20;99.90
52321;DHT22;38261;54.090;13.382;2023-09-12T02:51:11;18.20;99.90
52321;DHT22;38261;54.090;13.382;2023-09-12T02:52:33;18.20;99.90
52321;DHT22;38261;54.090;13.382;2023-09-12T02:53:55;18.20;99.90
52321;DHT22;38261;54.090;13.382;2023-09-12T02:55:18;18.20;99.90
52321;DHT22;38261;54.090;13.382;2023-09-12T02:56:40;18.20;99.90
52321;DHT22;38261;54.090;13.382;2023-09-12T02:58:02;18.30;99.90
52321;DHT22;38261;54.090;13.382;2023-09-12T02:59:24;18.20;99.90
52321;DHT22;38261;54.090;13.382;2023-09-12T03:00:46;18.20;99.90
52321;DHT22;38261;54.090;13.382;2023-09-12T03:02:12;18.20;99.90
52321;DHT22;38261;54.090;13.382;2023-09-12T03:03:34;18.20;99.90
52321;DHT22;38261;54.090;13.382;2023-09-12T03:04:56;18.20;99.90
52321;DHT22;38261;54.090;13.382;2023-09-12T03:06:19;18.20;99.90
52321;DHT22;38261;54.090;13.382;2023-09-12T03:07:41;18.20;99.90
52321;DHT22;38261;54.090;13.382;2023-09-12T03:09:03;18.20;99.90
52321;DHT22;38261;54.090;13.382;2023-09-12T03:10:25;18.20;99.90
52321;DHT22;38261;54.090;13.382;2023-09-12T03:11:49;18.20;99.90
52321;DHT22;38261;54.090;13.382;2023-09-12T03:13:11;18.20;99.90
52321;DHT22;38261;54.090;13.382;2023-09-12T03:14:34;18.20;99.90
52321;DHT22;38261;54.090;13.382;2023-09-12T03:15:56;18.20;99.90
52321;DHT22;38261;54.090;13.382;2023-09-12T03:17:18;18.20;99.90
52321;DHT22;38261;54.090;13.382;2023-09-12T03:18:41;18.20;99.90
52321;DHT22;38261;54.090;13.382;2023-09-12T03:20:04;18.20;99.90
52321;DHT22;38261;54.090;13.382;2023-09-12T03:21:30;18.20;99.90
52321;DHT22;38261;54.090;13.382;2023-09-12T03:22:53;18.20;99.90
52321;DHT22;38261;54.090;13.382;2023-09-12T03:24:15;18.20;99.90
52321;DHT22;38261;54.090;13.382;2023-09-12T03:25:40;18.20;99.90
52321;DHT22;38261;54.090;13.382;2023-09-12T03:27:02;18.20;99.90
52321;DHT22;38261;54.090;13.382;2023-09-12T03:28:25;18.20;99.90
52321;DHT22;38261;54.090;13.382;2023-09-12T03:29:47;18.20;99.90
52321;DHT22;38261;54.090;13.382;2023-09-12T03:31:11;18.20;99.90
52321;DHT22;38261;54.090;13.382;2023-09-12T03:32:34;18.20;99.90
52321;DHT22;38261;54.090;13.382;2023-09-12T03:33:56;18.20;99.90
52321;DHT22;38261;54.090;13.382;2023-09-12T03:35:18;18.20;99.90
52321;DHT22;38261;54.090;13.382;2023-09-12T03:36:40;18.20;99.90
52321;DHT22;38261;54.090;13.382;2023-09-12T03:38:02;18.20;99.90
52321;DHT22;38261;54.090;13.382;2023-09-12T03:39:25;18.20;99.90
52321;DHT22;38261;54.090;13.382;2023-09-12T03:40:47;18.20;99.90
52321;DHT22;38261;54.090;13.382;2023-09-12T03:42:09;18.20;99.90
52321;DHT22;38261;54.090;13.382;2023-09-12T03:43:32;18.20;99.90
52321;DHT22;38261;54.090;13.382;2023-09-12T03:44:55;18.20;99.90
52321;DHT22;38261;54.090;13.382;2023-09-12T03:46:17;18.20;99.90
52321;DHT22;38261;54.090;13.382;2023-09-12T03:47:39;18.20;99.90
52321;DHT22;38261;54.090;13.382;2023-09-12T03:49:01;18.20;99.90
52321;DHT22;38261;54.090;13.382;2023-09-12T03:50:23;18.20;99.90
52321;DHT22;38261;54.090;13.382;2023-09-12T03:51:45;18.20;99.90
52321;DHT22;38261;54.090;13.382;2023-09-12T03:53:08;18.20;99.90
52321;DHT22;38261;54.090;13.382;2023-09-12T03:54:30;18.20;99.90
52321;DHT22;38261;54.090;13.382;2023-09-12T03:55:52;18.20;99.90
52321;DHT22;38261;54.090;13.382;2023-09-12T03:57:15;18.20;99.90
52321;DHT22;38261;54.090;13.382;2023-09-12T03:58:38;18.20;99.90
52321;DHT22;38261;54.090;13.382;2023-09-12T04:00:01;18.20;99.90
52321;DHT22;38261;54.090;13.382;2023-09-12T04:01:28;18.20;99.90
52321;DHT22;38261;54.090;13.382;2023-09-12T04:02:50;18.20;99.90
52321;DHT22;38261;54.090;13.382;2023-09-12T04:04:12;18.20;99.90
52321;DHT22;38261;54.090;13.382;2023-09-12T04:05:35;18.20;99.90
52321;DHT22;38261;54.090;13.382;2023-09-12T04:06:57;18.20;99.90
52321;DHT22;38261;54.090;13.382;2023-09-12T04:08:19;18.20;99.90
52321;DHT22;38261;54.090;13.382;2023-09-12T04:09:41;18.10;99.90
52321;DHT22;38261;54.090;13.382;2023-09-12T04:11:03;18.10;99.90
52321;DHT22;38261;54.090;13.382;2023-09-12T04:12:25;18.10;99.90
52321;DHT22;38261;54.090;13.382;2023-09-12T04:13:48;18.10;99.90
52321;DHT22;38261;54.090;13.382;2023-09-12T04:15:10;18.10;99.90
52321;DHT22;38261;54.090;13.382;2023-09-12T04:16:32;18.10;99.90
52321;DHT22;38261;54.090;13.382;2023-09-12T04:17:55;18.10;99.90
52321;DHT22;38261;54.090;13.382;2023-09-12T04:19:18;18.10;99.90
52321;DHT22;38261;54.090;13.382;2023-09-12T04:20:40;18.10;99.90
52321;DHT22;38261;54.090;13.382;2023-09-12T04:22:02;18.10;99.90
52321;DHT22;38261;54.090;13.382;2023-09-12T04:23:26;18.10;99.90
52321;DHT22;38261;54.090;13.382;2023-09-12T04:24:48;18.10;99.90
52321;DHT22;38261;54.090;13.382;2023-09-12T04:26:10;18.10;99.90
52321;DHT22;38261;54.090;13.382;2023-09-12T04:27:33;18.10;99.90
52321;DHT22;38261;54.090;13.382;2023-09-12T04:28:56;18.10;99.90
52321;DHT22;38261;54.090;13.382;2023-09-12T04:30:18;18.10;99.90
52321;DHT22;38261;54.090;13.382;2023-09-12T04:31:40;18.10;99.90
52321;DHT22;38261;54.090;13.382;2023-09-12T04:33:02;18.10;99.90
52321;DHT22;38261;54.090;13.382;2023-09-12T04:34:28;18.10;99.90
52321;DHT22;38261;54.090;13.382;2023-09-12T04:35:50;18.10;99.90
52321;DHT22;38261;54.090;13.382;2023-09-12T04:37:12;18.10;99.90
52321;DHT22;38261;54.090;13.382;2023-09-12T04:38:34;18.20;99.90
52321;DHT22;38261;54.090;13.382;2023-09-12T04:39:56;18.20;99.90
52321;DHT22;38261;54.090;13.382;2023-09-12T04:41:20;18.20;99.90
52321;DHT22;38261;54.090;13.382;2023-09-12T04:42:42;18.20;99.90
52321;DHT22;38261;54.090;13.382;2023-09-12T04:44:04;18.20;99.90
52321;DHT22;38261;54.090;13.382;2023-09-12T04:45:27;18.20;99.90
52321;DHT22;38261;54.090;13.382;2023-09-12T04:46:49;18.30;99.90
52321;DHT22;38261;54.090;13.382;2023-09-12T04:48:11;18.30;99.90
52321;DHT22;38261;54.090;13.382;2023-09-12T04:49:33;18.30;99.90
52321;DHT22;38261;54.090;13.382;2023-09-12T04:50:55;18.40;99.90
52321;DHT22;38261;54.090;13.382;2023-09-12T04:52:18;18.40;99.90
52321;DHT22;38261;54.090;13.382;2023-09-12T04:53:40;18.40;99.90
52321;DHT22;38261;54.090;13.382;2023-09-12T04:55:03;18.40;99.90
52321;DHT22;38261;54.090;13.382;2023-09-12T04:56:25;18.40;99.90
52321;DHT22;38261;54.090;13.382;2023-09-12T04:57:47;18.40;99.90
52321;DHT22;38261;54.090;13.382;2023-09-12T04:59:10;18.40;99.90
52321;DHT22;38261;54.090;13.382;2023-09-12T05:00:33;18.40;99.90
52321;DHT22;38261;54.090;13.382;2023-09-12T05:01:55;18.60;99.90
52321;DHT22;38261;54.090;13.382;2023-09-12T05:03:17;18.70;99.90
52321;DHT22;38261;54.090;13.382;2023-09-12T05:04:40;18.80;99.90
52321;DHT22;38261;54.090;13.382;2023-09-12T05:06:02;19.00;99.90
52321;DHT22;38261;54.090;13.382;2023-09-12T05:07:25;19.00;99.90
52321;DHT22;38261;54.090;13.382;2023-09-12T05:08:47;19.20;99.90
52321;DHT22;38261;54.090;13.382;2023-09-12T05:10:09;19.30;99.90
52321;DHT22;38261;54.090;13.382;2023-09-12T05:11:31;19.50;99.90
52321;DHT22;38261;54.090;13.382;2023-09-12T05:12:53;19.50;99.90
52321;DHT22;38261;54.090;13.382;2023-09-12T05:14:16;19.70;99.90
52321;DHT22;38261;54.090;13.382;2023-09-12T05:15:38;19.80;99.90
52321;DHT22;38261;54.090;13.382;2023-09-12T05:17:01;19.90;99.90
52321;DHT22;38261;54.090;13.382;2023-09-12T05:18:23;20.00;99.90
52321;DHT22;38261;54.090;13.382;2023-09-12T05:19:46;20.10;99.90
52321;DHT22;38261;54.090;13.382;2023-09-12T05:21:08;20.20;99.90
52321;DHT22;38261;54.090;13.382;2023-09-12T05:22:30;20.30;99.90
52321;DHT22;38261;54.090;13.382;2023-09-12T05:23:53;20.30;99.90
52321;DHT22;38261;54.090;13.382;2023-09-12T05:25:15;20.40;99.90
52321;DHT22;38261;54.090;13.382;2023-09-12T05:26:37;20.40;99.90
52321;DHT22;38261;54.090;13.382;2023-09-12T05:27:59;20.50;99.90
52321;DHT22;38261;54.090;13.382;2023-09-12T05:29:21;20.50;99.90
52321;DHT22;38261;54.090;13.382;2023-09-12T05:30:43;20.60;99.90
52321;DHT22;38261;54.090;13.382;2023-09-12T05:32:06;20.60;99.90
52321;DHT22;38261;54.090;13.382;2023-09-12T05:33:28;20.60;99.90
52321;DHT22;38261;54.090;13.382;2023-09-12T05:34:54;20.70;99.90
52321;DHT22;38261;54.090;13.382;2023-09-12T05:36:36;20.70;99.90
52321;DHT22;38261;54.090;13.382;2023-09-12T05:37:58;20.80;99.90
52321;DHT22;38261;54.090;13.382;2023-09-12T05:39:20;20.80;99.90
52321;DHT22;38261;54.090;13.382;2023-09-12T05:40:42;20.80;99.90
52321;DHT22;38261;54.090;13.382;2023-09-12T05:42:05;20.90;99.90
52321;DHT22;38261;54.090;13.382;2023-09-12T05:43:27;20.90;99.90
52321;DHT22;38261;54.090;13.382;2023-09-12T05:44:50;20.90;99.90
52321;DHT22;38261;54.090;13.382;2023-09-12T05:46:15;21.00;99.90
52321;DHT22;38261;54.090;13.382;2023-09-12T05:47:37;20.90;99.90
52321;DHT22;38261;54.090;13.382;2023-09-12T05:48:59;20.90;99.90
52321;DHT22;38261;54.090;13.382;2023-09-12T05:50:21;20.90;99.90
52321;DHT22;38261;54.090;13.382;2023-09-12T05:51:43;20.70;99.90
52321;DHT22;38261;54.090;13.382;2023-09-12T05:53:07;20.60;99.90
52321;DHT22;38261;54.090;13.382;2023-09-12T05:54:29;20.50;99.90
52321;DHT22;38261;54.090;13.382;2023-09-12T05:55:52;20.50;99.90
52321;DHT22;38261;54.090;13.382;2023-09-12T05:57:14;20.40;99.90
52321;DHT22;38261;54.090;13.382;2023-09-12T05:58:36;20.40;99.90
52321;DHT22;38261;54.090;13.382;2023-09-12T06:00:04;20.40;99.90
52321;DHT22;38261;54.090;13.382;2023-09-12T06:01:27;20.50;99.90
52321;DHT22;38261;54.090;13.382;2023-09-12T06:02:49;20.50;99.90
52321;DHT22;38261;54.090;13.382;2023-09-12T06:04:12;20.60;99.90
52321;DHT22;38261;54.090;13.382;2023-09-12T06:05:34;20.60;99.90
52321;DHT22;38261;54.090;13.382;2023-09-12T06:06:57;20.60;99.90
52321;DHT22;38261;54.090;13.382;2023-09-12T06:08:19;20.60;99.90
52321;DHT22;38261;54.090;13.382;2023-09-12T06:09:41;20.70;99.90
52321;DHT22;38261;54.090;13.382;2023-09-12T06:11:04;20.70;99.90
52321;DHT22;38261;54.090;13.382;2023-09-12T06:12:26;20.80;99.90
52321;DHT22;38261;54.090;13.382;2023-09-12T06:13:48;20.80;99.90
52321;DHT22;38261;54.090;13.382;2023-09-12T06:15:10;20.80;99.90
52321;DHT22;38261;54.090;13.382;2023-09-12T06:16:32;20.90;99.90
52321;DHT22;38261;54.090;13.382;2023-09-12T06:17:55;20.90;99.90
52321;DHT22;38261;54.090;13.382;2023-09-12T06:19:17;20.90;99.90
52321;DHT22;38261;54.090;13.382;2023-09-12T06:20:41;21.00;99.90
52321;DHT22;38261;54.090;13.382;2023-09-12T06:22:04;21.00;99.90
52321;DHT22;38261;54.090;13.382;2023-09-12T06:23:26;21.00;99.90
52321;DHT22;38261;54.090;13.382;2023-09-12T06:24:50;21.00;99.90
52321;DHT22;38261;54.090;13.382;2023-09-12T06:26:12;21.10;99.90
52321;DHT22;38261;54.090;13.382;2023-09-12T06:27:34;21.20;99.90
52321;DHT22;38261;54.090;13.382;2023-09-12T06:28:56;21.20;99.90
52321;DHT22;38261;54.090;13.382;2023-09-12T06:30:18;21.20;99.90
52321;DHT22;38261;54.090;13.382;2023-09-12T06:31:41;21.30;99.90
52321;DHT22;38261;54.090;13.382;2023-09-12T06:33:04;21.40;99.90
52321;DHT22;38261;54.090;13.382;2023-09-12T06:34:26;21.40;99.90
52321;DHT22;38261;54.090;13.382;2023-09-12T06:35:50;21.40;99.90
52321;DHT22;38261;54.090;13.382;2023-09-12T06:37:12;21.30;99.90
52321;DHT22;38261;54.090;13.382;2023-09-12T06:38:35;21.30;99.90
52321;DHT22;38261;54.090;13.382;2023-09-12T06:39:57;21.30;99.90
52321;DHT22;38261;54.090;13.382;2023-09-12T06:41:19;21.20;99.90
52321;DHT22;38261;54.090;13.382;2023-09-12T06:42:42;21.20;99.90
52321;DHT22;38261;54.090;13.382;2023-09-12T06:44:05;21.20;99.90
52321;DHT22;38261;54.090;13.382;2023-09-12T06:45:27;21.20;99.90
52321;DHT22;38261;54.090;13.382;2023-09-12T06:46:49;21.30;99.90
52321;DHT22;38261;54.090;13.382;2023-09-12T06:48:11;21.30;99.90
52321;DHT22;38261;54.090;13.382;2023-09-12T06:49:33;21.30;99.90
52321;DHT22;38261;54.090;13.382;2023-09-12T06:50:58;21.40;99.90
52321;DHT22;38261;54.090;13.382;2023-09-12T06:52:20;21.40;99.90
52321;DHT22;38261;54.090;13.382;2023-09-12T06:53:42;21.50;99.90
52321;DHT22;38261;54.090;13.382;2023-09-12T06:55:05;21.50;99.90
52321;DHT22;38261;54.090;13.382;2023-09-12T06:56:29;21.50;99.90
52321;DHT22;38261;54.090;13.382;2023-09-12T06:57:51;21.40;99.90
52321;DHT22;38261;54.090;13.382;2023-09-12T06:59:13;21.40;99.90
52321;DHT22;38261;54.090;13.382;2023-09-12T07:00:35;21.30;99.90
52321;DHT22;38261;54.090;13.382;2023-09-12T07:01:58;21.40;99.90
52321;DHT22;38261;54.090;13.382;2023-09-12T07:03:20;21.40;99.90
52321;DHT22;38261;54.090;13.382;2023-09-12T07:04:43;21.40;99.90
52321;DHT22;38261;54.090;13.382;2023-09-12T07:06:05;21.40;99.90
52321;DHT22;38261;54.090;13.382;2023-09-12T07:07:27;21.40;99.90
52321;DHT22;38261;54.090;13.382;2023-09-12T07:08:49;21.40;99.90
52321;DHT22;38261;54.090;13.382;2023-09-12T07:10:13;21.50;99.90
52321;DHT22;38261;54.090;13.382;2023-09-12T07:11:47;21.50;99.90
52321;DHT22;38261;54.090;13.382;2023-09-12T07:13:09;21.50;99.90
52321;DHT22;38261;54.090;13.382;2023-09-12T07:14:31;21.50;99.90
52321;DHT22;38261;54.090;13.382;2023-09-12T07:15:56;21.60;99.90
52321;DHT22;38261;54.090;13.382;2023-09-12T07:17:18;21.60;99.90
52321;DHT22;38261;54.090;13.382;2023-09-12T07:18:41;21.70;99.90
52321;DHT22;38261;54.090;13.382;2023-09-12T07:20:03;21.80;99.90
52321;DHT22;38261;54.090;13.382;2023-09-12T07:21:26;21.90;99.90
52321;DHT22;38261;54.090;13.382;2023-09-12T07:22:48;22.00;99.90
52321;DHT22;38261;54.090;13.382;2023-09-12T07:24:11;22.10;99.90
52321;DHT22;38261;54.090;13.382;2023-09-12T07:25:40;22.20;99.90
52321;DHT22;38261;54.090;13.382;2023-09-12T07:27:02;22.10;99.90
52321;DHT22;38261;54.090;13.382;2023-09-12T07:28:26;22.10;99.90
52321;DHT22;38261;54.090;13.382;2023-09-12T07:29:48;22.10;99.90
52321;DHT22;38261;54.090;13.382;2023-09-12T07:31:10;22.20;99.90
52321;DHT22;38261;54.090;13.382;2023-09-12T07:32:33;22.20;99.90
52321;DHT22;38261;54.090;13.382;2023-09-12T07:33:55;22.30;99.90
52321;DHT22;38261;54.090;13.382;2023-09-12T07:35:18;22.50;99.90
52321;DHT22;38261;54.090;13.382;2023-09-12T07:36:41;22.50;99.90
52321;DHT22;38261;54.090;13.382;2023-09-12T07:38:03;22.60;99.90
52321;DHT22;38261;54.090;13.382;2023-09-12T07:39:25;22.60;99.90
52321;DHT22;38261;54.090;13.382;2023-09-12T07:40:48;22.60;99.90
52321;DHT22;38261;54.090;13.382;2023-09-12T07:42:10;22.60;99.90
52321;DHT22;38261;54.090;13.382;2023-09-12T07:43:33;22.60;99.90
52321;DHT22;38261;54.090;13.382;2023-09-12T07:44:55;22.60;99.90
52321;DHT22;38261;54.090;13.382;2023-09-12T07:46:17;22.60;99.90
52321;DHT22;38261;54.090;13.382;2023-09-12T07:47:39;22.60;99.90
52321;DHT22;38261;54.090;13.382;2023-09-12T07:49:02;22.60;99.90
52321;DHT22;38261;54.090;13.382;2023-09-12T07:50:24;22.70;99.90
52321;DHT22;38261;54.090;13.382;2023-09-12T07:51:46;22.80;99.90
52321;DHT22;38261;54.090;13.382;2023-09-12T07:53:08;22.80;99.90
52321;DHT22;38261;54.090;13.382;2023-09-12T07:54:31;22.90;99.90
52321;DHT22;38261;54.090;13.382;2023-09-12T07:55:53;23.00;99.90
52321;DHT22;38261;54.090;13.382;2023-09-12T07:57:16;23.10;99.90
52321;DHT22;38261;54.090;13.382;2023-09-12T07:58:39;23.00;99.90
52321;DHT22;38261;54.090;13.382;2023-09-12T08:00:02;23.00;99.90
52321;DHT22;38261;54.090;13.382;2023-09-12T08:01:27;23.10;99.90
52321;DHT22;38261;54.090;13.382;2023-09-12T08:02:49;23.20;99.90
52321;DHT22;38261;54.090;13.382;2023-09-12T08:04:12;23.30;99.90
52321;DHT22;38261;54.090;13.382;2023-09-12T08:05:36;23.40;99.90
52321;DHT22;38261;54.090;13.382;2023-09-12T08:07:00;23.50;99.90
52321;DHT22;38261;54.090;13.382;2023-09-12T08:08:22;23.60;99.90
52321;DHT22;38261;54.090;13.382;2023-09-12T08:09:55;23.70;99.90
52321;DHT22;38261;54.090;13.382;2023-09-12T08:11:17;23.80;99.90
52321;DHT22;38261;54.090;13.382;2023-09-12T08:12:40;23.70;99.90
52321;DHT22;38261;54.090;13.382;2023-09-12T08:14:03;23.80;99.90
52321;DHT22;38261;54.090;13.382;2023-09-12T08:15:26;23.90;99.90
52321;DHT22;38261;54.090;13.382;2023-09-12T08:16:48;24.10;99.90
52321;DHT22;38261;54.090;13.382;2023-09-12T08:18:10;24.20;99.90
52321;DHT22;38261;54.090;13.382;2023-09-12T08:19:33;24.20;99.90
52321;DHT22;38261;54.090;13.382;2023-09-12T08:20:55;24.20;99.90
52321;DHT22;38261;54.090;13.382;2023-09-12T08:22:17;24.20;99.90
52321;DHT22;38261;54.090;13.382;2023-09-12T08:23:40;24.20;99.90
52321;DHT22;38261;54.090;13.382;2023-09-12T08:25:03;24.10;99.90
52321;DHT22;38261;54.090;13.382;2023-09-12T08:26:26;24.10;99.90
52321;DHT22;38261;54.090;13.382;2023-09-12T08:27:49;24.00;99.90
52321;DHT22;38261;54.090;13.382;2023-09-12T08:29:11;24.00;99.90
52321;DHT22;38261;54.090;13.382;2023-09-12T08:30:33;24.00;99.90
52321;DHT22;38261;54.090;13.382;2023-09-12T08:31:55;24.00;99.90
52321;DHT22;38261;54.090;13.382;2023-09-12T08:33:18;24.00;99.90
52321;DHT22;38261;54.090;13.382;2023-09-12T08:34:40;24.00;99.90
52321;DHT22;38261;54.090;13.382;2023-09-12T08:36:02;24.10;99.90
52321;DHT22;38261;54.090;13.382;2023-09-12T08:37:25;24.10;99.90